Andrews, Texas
Current Conditions -  °F | °C
As of 7:35 AM on Monday 24 Nov 2014 (Local Time) from KE11 Reporting Station
Clear Clear  
Wind Chill: 27°   Ceiling: Unl
Heat Index: 32°   Visibility: 10mi
Dew Point: 29°   Wind: 5mph
Humidity: 88%   Direction: 280°W
Pressure: 30.07"   Gusts: NA
Location:  32.32°N, 102.54°W
Report Text: KE11 241335Z AUTO 28004KT 10SM CLR 00/M02 A3007 RMK AO2 T00001018
Loading
Personal Weather Stations






























Interactive Weather Map New forecast layout! Learn more

10-Day Weather Forecast

Advertisements
Track Severe Weather on mobile